Time;durP1;ratioP1;P1;durP2;ratioP2;P2;SDS_P1;SDS_P2;PMS_P1;PMS_P2;Temp;Humidity;BMP_temperature;BMP_pressure;BME280_temperature;BME280_humidity;BME280_pressure;Samples;Min_cycle;Max_cycle;Signal;HPM_P1;HPM_P2
2022/05/11 00:01:22;;;;;;;5.88;2.33;;;18.00;99.90;;;;;;4990988;28;20038;-67
2022/05/11 00:03:48;;;;;;;3.67;2.20;;;17.90;99.90;;;;;;4990940;28;20403;-67
2022/05/11 00:06:14;;;;;;;3.28;2.28;;;17.90;99.90;;;;;;4991847;28;20106;-67
2022/05/11 00:08:40;;;;;;;3.83;2.25;;;17.80;99.90;;;;;;4991817;28;20050;-66
2022/05/11 00:13:40;;;;;;;5.00;2.60;;;17.80;99.90;;;;;;4966955;28;20042;-83
2022/05/11 00:16:06;;;;;;;3.80;2.10;;;17.80;99.90;;;;;;4972302;28;20023;-83
2022/05/11 00:18:32;;;;;;;4.78;2.40;;;17.80;99.90;;;;;;4972373;28;20387;-83
2022/05/11 00:20:58;;;;;;;4.82;2.30;;;17.70;99.90;;;;;;4972465;28;20035;-83
2022/05/11 00:23:24;;;;;;;4.35;2.28;;;17.70;99.90;;;;;;4972426;28;20042;-83
2022/05/11 00:25:50;;;;;;;3.75;2.33;;;17.70;99.90;;;;;;4972364;28;20026;-83
2022/05/11 00:28:16;;;;;;;4.55;2.45;;;17.80;99.90;;;;;;4972355;28;20372;-83
2022/05/11 00:30:42;;;;;;;7.57;2.55;;;17.80;99.90;;;;;;4972044;28;20081;-83
2022/05/11 00:33:13;;;;;;;4.07;2.45;;;17.70;99.90;;;;;;4972368;28;20118;-83
2022/05/11 00:35:40;;;;;;;4.95;2.38;;;17.70;99.90;;;;;;4972138;28;20031;-83
2022/05/11 00:38:07;;;;;;;4.43;2.50;;;17.70;99.90;;;;;;4972258;28;20031;-83
2022/05/11 00:40:38;;;;;;;4.95;2.42;;;17.70;99.90;;;;;;4954817;28;20450;-82
2022/05/11 00:43:03;;;;;;;4.88;2.20;;;17.70;99.90;;;;;;4972206;28;20043;-83
2022/05/11 00:45:30;;;;;;;6.72;2.65;;;17.70;99.90;;;;;;4939004;28;20082;-83
2022/05/11 00:48:00;;;;;;;4.07;2.38;;;17.70;99.90;;;;;;4972007;28;20545;-83
2022/05/11 00:50:30;;;;;;;5.70;3.00;;;17.70;99.90;;;;;;4954853;28;20039;-83
2022/05/11 00:53:09;;;;;;;5.10;2.67;;;17.70;99.90;;;;;;4972090;28;20459;-83
2022/05/11 00:55:40;;;;;;;7.97;3.25;;;17.70;99.90;;;;;;4972113;28;20027;-83
2022/05/11 00:58:17;;;;;;;5.18;2.80;;;17.80;99.90;;;;;;4972147;28;20050;-83
2022/05/11 01:00:44;;;;;;;7.35;2.83;;;17.80;99.90;;;;;;4973769;28;20649;-83
2022/05/11 01:03:13;;;;;;;4.65;2.83;;;17.80;99.90;;;;;;4976033;28;20054;-83
2022/05/11 01:05:43;;;;;;;6.60;2.58;;;17.80;99.90;;;;;;4975716;28;20030;-83
2022/05/11 01:08:11;;;;;;;5.57;2.70;;;17.80;99.90;;;;;;4958638;28;20563;-82
2022/05/11 01:10:37;;;;;;;5.18;2.60;;;17.80;99.90;;;;;;4975719;28;20035;-83
2022/05/11 01:13:08;;;;;;;5.05;2.90;;;17.80;99.90;;;;;;4975654;28;20523;-83
2022/05/11 01:15:34;;;;;;;5.05;2.75;;;17.80;99.90;;;;;;4975840;28;20499;-82
2022/05/11 01:18:06;;;;;;;3.85;2.50;;;17.80;99.90;;;;;;4976153;28;20138;-82
2022/05/11 01:20:35;;;;;;;6.20;2.85;;;17.80;99.90;;;;;;4975415;28;20105;-83
2022/05/11 01:23:16;;;;;;;4.50;2.63;;;17.90;99.90;;;;;;4958243;28;20074;-82
2022/05/11 01:25:42;;;;;;;6.78;2.40;;;17.80;99.90;;;;;;4975484;28;20057;-83
2022/05/11 01:28:12;;;;;;;5.10;2.60;;;17.80;99.90;;;;;;4975508;28;20030;-83
2022/05/11 01:30:44;;;;;;;3.90;2.30;;;17.80;99.90;;;;;;4957813;28;20035;-83
2022/05/11 01:33:14;;;;;;;8.93;3.10;;;17.80;99.80;;;;;;4975420;28;20114;-82
2022/05/11 01:35:49;;;;;;;5.13;2.80;;;17.80;99.70;;;;;;4975316;28;20027;-82
2022/05/11 01:38:20;;;;;;;4.93;2.70;;;17.80;99.80;;;;;;4975497;28;20105;-83
2022/05/11 01:40:46;;;;;;;5.75;2.60;;;17.80;99.70;;;;;;4975178;28;20022;-82
2022/05/11 01:43:27;;;;;;;4.85;2.75;;;17.80;99.70;;;;;;4957731;28;20030;-83
2022/05/11 01:45:53;;;;;;;4.75;2.92;;;17.80;99.80;;;;;;4975145;28;20027;-82
2022/05/11 01:48:19;;;;;;;4.93;2.47;;;17.80;99.80;;;;;;4957982;28;20494;-82
2022/05/11 01:50:45;;;;;;;3.90;2.50;;;17.80;99.70;;;;;;4941465;28;20046;-82
2022/05/11 01:53:11;;;;;;;6.55;2.90;;;17.80;99.90;;;;;;4975024;28;20058;-83
2022/05/11 01:55:37;;;;;;;4.80;2.70;;;17.80;99.40;;;;;;4957639;28;20073;-82
2022/05/11 01:58:06;;;;;;;6.00;2.63;;;17.80;99.40;;;;;;4957651;28;20031;-83
2022/05/11 02:00:33;;;;;;;5.32;3.00;;;17.80;99.20;;;;;;4974680;28;20031;-83
2022/05/11 02:02:59;;;;;;;7.88;2.90;;;17.80;99.10;;;;;;4974934;28;20027;-83
2022/05/11 02:08:09;;;;;;;5.68;2.88;;;17.70;98.90;;;;;;4974767;28;20050;-83
2022/05/11 02:10:35;;;;;;;4.57;2.80;;;17.70;99.00;;;;;;4974424;28;20035;-83
2022/05/11 02:13:01;;;;;;;4.22;2.60;;;17.70;99.00;;;;;;4973535;28;20038;-83
2022/05/11 02:15:27;;;;;;;7.70;2.80;;;17.60;98.90;;;;;;4974777;28;20023;-83
2022/05/11 02:17:54;;;;;;;9.73;4.15;;;17.70;99.00;;;;;;4974588;28;20026;-83
2022/05/11 02:20:21;;;;;;;5.38;2.75;;;17.60;99.10;;;;;;4974375;28;20471;-82
2022/05/11 02:22:48;;;;;;;4.95;2.70;;;17.60;99.20;;;;;;4974459;28;20034;-83
2022/05/11 02:25:15;;;;;;;5.47;2.83;;;17.60;99.20;;;;;;4974514;28;20129;-83
2022/05/11 02:27:42;;;;;;;4.75;2.67;;;17.60;99.40;;;;;;4957005;28;20031;-83
2022/05/11 02:30:11;;;;;;;5.47;2.85;;;17.60;99.50;;;;;;4957045;28;20153;-82
2022/05/11 02:32:38;;;;;;;4.78;2.63;;;17.60;99.70;;;;;;4974352;28;20549;-82
2022/05/11 02:35:15;;;;;;;5.38;2.92;;;17.60;99.60;;;;;;4974388;28;20190;-82
2022/05/11 02:37:50;;;;;;;5.80;2.63;;;17.50;99.60;;;;;;4956850;28;20027;-82
2022/05/11 02:40:20;;;;;;;6.18;2.90;;;17.50;99.60;;;;;;4974011;28;20027;-82
2022/05/11 02:42:46;;;;;;;7.15;4.35;;;17.50;99.50;;;;;;4956934;28;20462;-82
2022/05/11 02:45:13;;;;;;;6.00;3.60;;;17.50;99.40;;;;;;4974131;28;20039;-82
2022/05/11 02:47:40;;;;;;;5.30;3.38;;;17.50;99.30;;;;;;4973898;28;20073;-82
2022/05/11 02:50:08;;;;;;;4.32;2.70;;;17.50;99.30;;;;;;4973681;28;20031;-82
2022/05/11 02:52:35;;;;;;;6.00;2.95;;;17.50;99.20;;;;;;4974155;28;20104;-82
2022/05/11 02:55:01;;;;;;;5.35;2.65;;;17.50;99.10;;;;;;4974194;28;20042;-82
2022/05/11 02:57:27;;;;;;;4.32;2.38;;;17.50;98.90;;;;;;4956405;28;20414;-82
2022/05/11 02:59:53;;;;;;;6.55;2.67;;;17.50;98.80;;;;;;4973655;28;20035;-82
2022/05/11 03:02:20;;;;;;;6.47;3.10;;;17.50;98.60;;;;;;4973730;28;20023;-82
2022/05/11 03:04:47;;;;;;;6.97;2.35;;;17.50;98.50;;;;;;4973795;28;20035;-82
2022/05/11 03:07:13;;;;;;;5.03;3.17;;;17.50;98.50;;;;;;4956258;28;20062;-83
2022/05/11 03:09:39;;;;;;;7.40;3.00;;;17.50;98.70;;;;;;4973597;28;20510;-82
2022/05/11 03:12:06;;;;;;;9.48;2.70;;;17.50;98.80;;;;;;4973432;28;20042;-82
2022/05/11 03:14:32;;;;;;;6.13;2.63;;;17.50;98.40;;;;;;4956201;28;20442;-83
2022/05/11 03:16:57;;;;;;;6.55;2.83;;;17.60;98.60;;;;;;4973300;28;20126;-82
2022/05/11 03:19:24;;;;;;;4.35;2.35;;;17.60;98.40;;;;;;4973276;28;20027;-82
2022/05/11 03:21:51;;;;;;;4.38;2.60;;;17.60;98.40;;;;;;4973391;28;20023;-82
2022/05/11 03:24:17;;;;;;;5.97;2.85;;;17.60;98.40;;;;;;4973177;28;20042;-82
2022/05/11 03:26:43;;;;;;;6.10;2.95;;;17.60;98.10;;;;;;4955900;28;20030;-82
2022/05/11 03:29:09;;;;;;;6.32;3.08;;;17.60;97.70;;;;;;4955706;28;20553;-83
2022/05/11 03:31:36;;;;;;;5.47;2.60;;;17.60;97.50;;;;;;4984476;23;20046;-69
2022/05/11 03:36:48;;;;;;;5.60;2.83;;;17.60;97.80;;;;;;4982463;28;20030;-71
2022/05/11 03:39:15;;;;;;;8.55;3.22;;;17.50;97.90;;;;;;4985126;28;20030;-70
2022/05/11 03:41:43;;;;;;;4.03;2.50;;;17.50;98.00;;;;;;4991281;28;20033;-69
2022/05/11 03:44:09;;;;;;;4.68;2.80;;;17.50;98.10;;;;;;4991700;28;20088;-69
2022/05/11 03:46:35;;;;;;;6.18;2.85;;;17.50;98.10;;;;;;4992840;28;20459;-69
2022/05/11 03:49:00;;;;;;;6.70;3.00;;;17.50;98.20;;;;;;4992044;28;20029;-69
2022/05/11 03:51:26;;;;;;;7.28;3.10;;;17.50;98.20;;;;;;4994184;28;20048;-68
2022/05/11 03:53:52;;;;;;;4.97;2.90;;;17.40;98.20;;;;;;4993281;28;20054;-68
2022/05/11 03:56:18;;;;;;;6.25;3.13;;;17.40;98.20;;;;;;4993683;28;20035;-68
2022/05/11 03:58:45;;;;;;;5.10;2.78;;;17.50;98.30;;;;;;4993547;28;20045;-68
2022/05/11 04:01:12;;;;;;;4.63;2.95;;;17.50;98.20;;;;;;4993442;28;20058;-68
2022/05/11 04:03:39;;;;;;;5.18;3.13;;;17.50;98.20;;;;;;4994047;28;20026;-68
2022/05/11 04:06:04;;;;;;;5.90;2.50;;;17.50;98.20;;;;;;4993963;28;20034;-68
2022/05/11 04:08:30;;;;;;;4.28;2.50;;;17.50;98.20;;;;;;4992028;28;20034;-68
2022/05/11 04:10:56;;;;;;;6.97;2.97;;;17.40;98.30;;;;;;4993674;28;20030;-68
2022/05/11 04:13:22;;;;;;;6.60;3.22;;;17.50;98.40;;;;;;4993685;28;20035;-68
2022/05/11 04:15:50;;;;;;;7.63;3.45;;;17.50;98.40;;;;;;4993403;28;20030;-68
2022/05/11 04:18:17;;;;;;;5.68;2.90;;;17.50;98.40;;;;;;4993657;28;20036;-68
2022/05/11 04:20:43;;;;;;;6.28;3.25;;;17.50;98.50;;;;;;4993316;28;20107;-69
2022/05/11 04:23:09;;;;;;;7.53;3.00;;;17.50;98.60;;;;;;4994035;28;20384;-68
2022/05/11 04:25:35;;;;;;;5.25;2.92;;;17.40;98.50;;;;;;4993618;28;20084;-68
2022/05/11 04:28:02;;;;;;;4.90;2.90;;;17.40;98.60;;;;;;4991679;28;20737;-68
2022/05/11 04:30:31;;;;;;;6.10;3.20;;;17.50;98.60;;;;;;4993736;28;20395;-68
2022/05/11 04:32:58;;;;;;;6.18;2.80;;;17.50;98.60;;;;;;4993481;28;20218;-69
2022/05/11 04:35:30;;;;;;;6.78;3.00;;;17.40;98.50;;;;;;4991953;28;20022;-70
2022/05/11 04:37:59;;;;;;;6.15;3.08;;;17.40;98.60;;;;;;4992074;28;20538;-68
2022/05/11 04:40:26;;;;;;;5.47;3.22;;;17.40;98.60;;;;;;4993628;28;20046;-68
2022/05/11 04:42:52;;;;;;;7.65;3.47;;;17.30;98.60;;;;;;4993072;28;20038;-68
2022/05/11 04:45:19;;;;;;;9.75;3.30;;;17.40;98.50;;;;;;4992321;28;20039;-67
2022/05/11 04:47:45;;;;;;;7.72;3.10;;;17.30;98.60;;;;;;4993458;28;20034;-67
2022/05/11 04:50:14;;;;;;;5.18;2.92;;;17.30;98.80;;;;;;4994018;28;20035;-67
2022/05/11 04:52:40;;;;;;;10.23;3.80;;;17.30;99.00;;;;;;4993313;28;20065;-67
2022/05/11 04:55:09;;;;;;;6.20;3.50;;;17.20;99.10;;;;;;4992304;28;20501;-70
2022/05/11 04:57:36;;;;;;;5.60;3.45;;;17.20;99.10;;;;;;4991922;28;20041;-70
2022/05/11 05:00:10;;;;;;;7.68;4.32;;;17.30;99.10;;;;;;4992763;28;20399;-70
2022/05/11 05:02:36;;;;;;;8.80;4.20;;;17.20;99.10;;;;;;4990736;28;20080;-70
2022/05/11 05:05:05;;;;;;;10.88;4.53;;;17.20;99.20;;;;;;4991788;28;20030;-70
2022/05/11 05:07:35;;;;;;;11.27;3.88;;;17.30;99.30;;;;;;4992357;28;20399;-69
2022/05/11 05:10:05;;;;;;;8.52;3.90;;;17.40;99.40;;;;;;4991945;28;20084;-70
2022/05/11 05:12:31;;;;;;;14.25;3.88;;;17.40;99.40;;;;;;4990694;28;20502;-70
2022/05/11 05:14:57;;;;;;;7.00;3.67;;;17.40;99.30;;;;;;4992734;28;20106;-70
2022/05/11 05:17:23;;;;;;;10.85;4.00;;;17.50;99.30;;;;;;4993064;28;20492;-70
2022/05/11 05:19:49;;;;;;;8.85;3.78;;;17.50;99.20;;;;;;4992367;28;20053;-70
2022/05/11 05:22:16;;;;;;;6.93;3.65;;;17.60;99.20;;;;;;4991585;28;20696;-69
2022/05/11 05:24:43;;;;;;;14.27;4.07;;;17.60;98.90;;;;;;4992392;28;20045;-70
2022/05/11 05:27:14;;;;;;;10.95;4.05;;;17.70;98.30;;;;;;4991741;28;20033;-69
2022/05/11 05:32:25;;;;;;;7.72;3.72;;;17.80;98.20;;;;;;4992152;28;20034;-70
2022/05/11 05:34:51;;;;;;;7.15;3.75;;;17.90;98.20;;;;;;4992619;28;20034;-70
2022/05/11 05:37:18;;;;;;;7.05;3.95;;;17.90;98.20;;;;;;4990324;28;20043;-70
2022/05/11 05:39:47;;;;;;;12.77;6.65;;;17.90;98.00;;;;;;4992319;28;20030;-69
2022/05/11 05:42:21;;;;;;;10.35;4.57;;;17.90;98.00;;;;;;4992259;28;20480;-70
2022/05/11 05:44:47;;;;;;;7.35;4.38;;;18.00;97.90;;;;;;4991229;28;20089;-70
2022/05/11 05:47:15;;;;;;;12.98;5.07;;;18.00;97.90;;;;;;4993440;28;20042;-71
2022/05/11 05:49:41;;;;;;;7.07;4.30;;;18.00;98.00;;;;;;4994646;28;20030;-71
2022/05/11 05:52:13;;;;;;;10.30;5.10;;;18.00;97.90;;;;;;4995514;28;20038;-68
2022/05/11 05:54:39;;;;;;;8.30;4.90;;;18.00;97.90;;;;;;4994772;28;20105;-70
2022/05/11 05:57:05;;;;;;;12.07;6.20;;;18.10;97.90;;;;;;4995084;28;20038;-70
2022/05/11 05:59:31;;;;;;;9.73;5.20;;;18.10;98.00;;;;;;4993749;28;20034;-70
2022/05/11 06:01:57;;;;;;;9.80;5.43;;;18.10;98.00;;;;;;5017435;28;20053;-69
2022/05/11 06:04:23;;;;;;;10.27;5.28;;;18.20;98.00;;;;;;4994118;28;20026;-69
2022/05/11 06:06:49;;;;;;;13.38;5.82;;;18.20;98.00;;;;;;4994384;28;20088;-69
2022/05/11 06:09:15;;;;;;;12.23;6.60;;;18.20;98.10;;;;;;4995025;28;20030;-70
2022/05/11 06:11:42;;;;;;;15.63;6.60;;;18.30;98.00;;;;;;5019196;23;20037;-86
2022/05/11 06:14:11;;;;;;;17.42;11.50;;;18.30;98.00;;;;;;5028260;28;20065;-83
2022/05/11 06:16:36;;;;;;;13.27;6.30;;;18.40;97.90;;;;;;5034130;28;20029;-82
2022/05/11 06:19:08;;;;;;;12.15;6.03;;;18.40;97.80;;;;;;5032578;28;20041;-88
2022/05/11 06:21:34;;;;;;;14.95;6.00;;;18.50;97.80;;;;;;5032296;28;20030;-84
2022/05/11 06:24:00;;;;;;;13.60;5.80;;;18.50;97.30;;;;;;5011221;28;20034;-85
2022/05/11 06:27:03;;;;;;;14.88;6.93;;;18.50;97.40;;;;;;5012410;28;20030;-87
2022/05/11 06:29:29;;;;;;;13.13;6.90;;;18.60;97.20;;;;;;5011139;28;20030;-85
2022/05/11 06:31:55;;;;;;;14.73;7.20;;;18.60;96.60;;;;;;5012261;28;20494;-86
2022/05/11 06:34:21;;;;;;;12.57;6.70;;;18.70;96.10;;;;;;5011154;28;20030;-83
2022/05/11 06:36:53;;;;;;;13.75;6.50;;;18.70;96.70;;;;;;5012354;28;20104;-89
2022/05/11 06:39:24;;;;;;;11.27;6.20;;;18.70;98.00;;;;;;5010716;28;20103;-92
2022/05/11 06:41:59;;;;;;;16.15;6.88;;;18.80;97.30;;;;;;5013105;28;20105;-87
2022/05/11 06:45:05;;;;;;;14.63;7.32;;;18.80;98.00;;;;;;5013398;28;20038;-90
2022/05/11 06:47:31;;;;;;;13.52;7.38;;;18.90;96.90;;;;;;5012032;28;20120;-84
2022/05/11 06:49:57;;;;;;;17.52;8.65;;;18.90;97.20;;;;;;5012150;28;20104;-83
2022/05/11 06:52:39;;;;;;;18.60;7.68;;;19.00;96.80;;;;;;5013498;28;20038;-89
2022/05/11 07:01:20;;;;;;;14.73;7.03;;;19.00;95.90;;;;;;5013931;28;20690;-88
2022/05/11 07:03:48;;;;;;;10.27;4.80;;;19.00;96.00;;;;;;5012417;28;20029;-84
2022/05/11 07:06:14;;;;;;;9.73;4.30;;;19.10;94.30;;;;;;5011948;28;20033;-83
2022/05/11 07:08:42;;;;;;;6.40;3.28;;;19.10;94.80;;;;;;5010322;28;20030;-83
2022/05/11 07:13:55;;;;;;;6.75;2.53;;;19.30;93.50;;;;;;5043893;28;20053;-85
2022/05/11 07:16:23;;;;;;;5.22;2.40;;;19.30;93.00;;;;;;5011454;28;20026;-85
2022/05/11 07:18:49;;;;;;;9.35;3.20;;;19.40;92.40;;;;;;5007901;28;20446;-84
2022/05/11 07:21:18;;;;;;;7.60;2.60;;;19.40;92.60;;;;;;5011053;28;20041;-88
2022/05/11 07:23:44;;;;;;;;;;;19.40;92.90;;;;;;5010812;28;20030;-83
2022/05/11 07:26:10;;;;;;;8.35;3.30;;;19.40;92.40;;;;;;5008572;28;20456;-82
2022/05/11 07:28:37;;;;;;;5.63;2.72;;;19.40;92.20;;;;;;5009849;28;20414;-82
2022/05/11 07:31:03;;;;;;;5.70;3.15;;;19.40;92.20;;;;;;5008842;28;20130;-81
2022/05/11 07:33:31;;;;;;;5.93;3.10;;;19.40;92.30;;;;;;5011714;28;20061;-82
2022/05/11 07:35:57;;;;;;;7.93;2.70;;;19.40;92.20;;;;;;5011727;28;20410;-82
2022/05/11 07:38:23;;;;;;;7.13;2.90;;;19.40;92.10;;;;;;5012109;28;20124;-80
2022/05/11 07:40:56;;;;;;;7.13;2.63;;;19.40;92.10;;;;;;5011625;28;20040;-83
2022/05/11 07:43:23;;;;;;;6.15;2.70;;;19.40;92.20;;;;;;5010003;28;20037;-79
2022/05/11 07:45:49;;;;;;;10.20;2.55;;;19.50;92.00;;;;;;5010911;28;20030;-79
2022/05/11 07:48:20;;;;;;;4.78;2.60;;;19.50;92.00;;;;;;5010122;28;20053;-79
2022/05/11 07:50:45;;;;;;;7.53;3.03;;;19.50;92.00;;;;;;5010293;28;20065;-79
2022/05/11 07:53:11;;;;;;;5.85;2.30;;;19.50;92.00;;;;;;5008946;28;20393;-79
2022/05/11 07:55:37;;;;;;;5.53;2.00;;;19.60;91.50;;;;;;5008785;28;20055;-79
2022/05/11 08:00:48;;;;;;;8.05;2.00;;;19.60;91.70;;;;;;5009901;28;20490;-79
2022/05/11 08:03:14;;;;;;;7.30;2.95;;;19.60;91.60;;;;;;5011392;28;20038;-79
2022/05/11 08:05:40;;;;;;;6.18;2.05;;;19.70;91.50;;;;;;5011226;28;20241;-79
2022/05/11 08:08:08;;;;;;;7.57;2.35;;;19.70;91.60;;;;;;5011442;28;20156;-79
2022/05/11 08:10:41;;;;;;;4.35;1.88;;;19.80;91.50;;;;;;5010171;28;20029;-79
2022/05/11 08:13:07;;;;;;;4.30;2.00;;;19.80;91.50;;;;;;5011061;28;20064;-80
2022/05/11 08:15:36;;;;;;;3.55;2.10;;;19.80;91.40;;;;;;5011536;28;20053;-79
2022/05/11 08:18:04;;;;;;;10.15;2.35;;;19.80;91.40;;;;;;5011292;28;20053;-80
2022/05/11 08:20:34;;;;;;;8.77;2.58;;;19.90;91.40;;;;;;5011060;28;20041;-79
2022/05/11 08:23:02;;;;;;;4.72;2.50;;;20.00;91.10;;;;;;4993463;28;20479;-79
2022/05/11 08:25:30;;;;;;;3.47;1.75;;;19.90;91.10;;;;;;5009758;28;20033;-79
2022/05/11 08:27:57;;;;;;;3.90;2.00;;;20.00;91.30;;;;;;5009608;28;20462;-79
2022/05/11 08:33:22;;;;;;;6.15;2.35;;;20.10;90.60;;;;;;5010973;28;20033;-79
2022/05/11 08:35:49;;;;;;;10.80;2.65;;;20.10;90.70;;;;;;5010821;28;20483;-79
2022/05/11 08:38:16;;;;;;;4.85;2.40;;;20.10;90.90;;;;;;5010020;28;20037;-79
2022/05/11 08:40:51;;;;;;;5.70;2.42;;;20.00;90.90;;;;;;5011006;28;20036;-80
2022/05/11 08:43:19;;;;;;;6.35;2.55;;;20.10;91.10;;;;;;5011030;28;20030;-80
2022/05/11 08:45:54;;;;;;;5.80;2.72;;;20.10;90.90;;;;;;5010714;28;20038;-80
2022/05/11 08:48:47;;;;;;;5.78;2.20;;;20.10;91.10;;;;;;5010777;28;20053;-80
2022/05/11 08:51:40;;;;;;;6.07;2.58;;;20.10;91.00;;;;;;5009761;28;20497;-79
2022/05/11 08:54:34;;;;;;;7.55;3.15;;;20.20;90.70;;;;;;5010921;28;20537;-79
2022/05/11 08:57:09;;;;;;;4.55;2.20;;;20.20;90.80;;;;;;5009341;28;20030;-79
2022/05/11 08:59:37;;;;;;;5.93;2.30;;;20.30;90.80;;;;;;5009440;28;20041;-79
2022/05/11 09:02:42;;;;;;;8.45;3.05;;;20.30;90.50;;;;;;5010866;28;20026;-79
2022/05/11 09:05:08;;;;;;;5.72;2.40;;;20.30;90.50;;;;;;5009537;28;20022;-80
2022/05/11 09:07:38;;;;;;;5.95;2.67;;;20.30;90.50;;;;;;5010831;28;20473;-79
2022/05/11 09:10:06;;;;;;;6.82;2.50;;;20.40;90.60;;;;;;5010188;28;20038;-79
2022/05/11 09:12:33;;;;;;;6.20;3.10;;;20.40;90.60;;;;;;5009172;28;20034;-79
2022/05/11 09:15:00;;;;;;;6.20;2.72;;;20.40;90.50;;;;;;5010792;28;20516;-80
2022/05/11 09:17:38;;;;;;;8.27;3.70;;;20.40;90.60;;;;;;5009114;28;20104;-79
2022/05/11 09:20:10;;;;;;;8.57;2.97;;;20.50;90.50;;;;;;5010345;28;20041;-80
2022/05/11 09:22:55;;;;;;;7.82;2.95;;;20.60;90.00;;;;;;5012456;28;20041;-79
2022/05/11 09:25:31;;;;;;;6.28;3.05;;;20.60;90.00;;;;;;5014365;28;20397;-79
2022/05/11 09:28:19;;;;;;;7.68;3.47;;;20.50;89.70;;;;;;5014001;28;20038;-79
2022/05/11 09:31:05;;;;;;;8.15;3.00;;;20.50;89.90;;;;;;5013947;28;20030;-79
2022/05/11 09:33:38;;;;;;;8.85;2.90;;;20.50;90.00;;;;;;5014127;28;20538;-79
2022/05/11 09:36:05;;;;;;;8.80;3.30;;;20.60;90.20;;;;;;5012663;28;20033;-79
2022/05/11 09:38:37;;;;;;;8.60;3.00;;;20.70;89.60;;;;;;5014269;28;20468;-79
2022/05/11 09:41:18;;;;;;;5.50;2.88;;;20.70;89.30;;;;;;5013985;28;20040;-79
2022/05/11 09:43:53;;;;;;;7.13;3.28;;;20.70;89.30;;;;;;5014010;28;20033;-79
2022/05/11 09:46:34;;;;;;;6.22;3.10;;;20.70;89.40;;;;;;5013774;28;20029;-79
2022/05/11 09:49:05;;;;;;;8.82;3.05;;;20.80;89.30;;;;;;5012651;28;20042;-79
2022/05/11 09:51:42;;;;;;;4.30;2.50;;;20.80;88.50;;;;;;5012479;28;20037;-79
2022/05/11 09:54:24;;;;;;;5.25;2.90;;;20.80;88.50;;;;;;5013755;28;20040;-79
2022/05/11 09:56:56;;;;;;;7.25;3.13;;;20.80;89.30;;;;;;5013744;28;20037;-78
2022/05/11 09:59:34;;;;;;;4.90;2.80;;;20.90;89.80;;;;;;5013624;28;20477;-79
2022/05/11 10:02:19;;;;;;;5.30;2.53;;;20.90;88.90;;;;;;5013725;28;20037;-77
2022/05/11 10:05:09;;;;;;;8.27;3.03;;;20.90;89.20;;;;;;5013735;28;20033;-79
2022/05/11 10:07:39;;;;;;;11.27;3.17;;;20.80;89.40;;;;;;5012974;28;20052;-79
2022/05/11 10:10:12;;;;;;;5.05;2.90;;;20.90;88.50;;;;;;5013163;28;20045;-79
2022/05/11 10:12:41;;;;;;;7.90;3.45;;;21.00;88.20;;;;;;5013335;28;20030;-79
2022/05/11 10:23:58;;;;;;;6.68;3.08;;;21.20;88.20;;;;;;5013217;28;20501;-79
2022/05/11 10:26:38;;;;;;;8.90;2.95;;;21.20;87.20;;;;;;5013313;28;20038;-79
2022/05/11 10:29:11;;;;;;;5.78;3.05;;;21.30;87.10;;;;;;5013279;28;20470;-79
2022/05/11 10:32:00;;;;;;;6.82;3.38;;;21.30;87.10;;;;;;5012918;28;20037;-79
2022/05/11 10:34:45;;;;;;;6.25;2.85;;;21.20;87.30;;;;;;5011129;28;20041;-79
2022/05/11 10:37:37;;;;;;;7.10;2.83;;;21.30;87.70;;;;;;5011477;28;20406;-79
2022/05/11 10:40:23;;;;;;;7.15;3.65;;;21.40;86.90;;;;;;5011603;28;20029;-79
2022/05/11 10:42:49;;;;;;;10.48;2.90;;;21.40;86.60;;;;;;5012897;28;20087;-79
2022/05/11 10:45:19;;;;;;;6.45;2.90;;;21.50;86.70;;;;;;5012800;28;20445;-79
2022/05/11 10:48:23;;;;;;;5.80;3.25;;;21.50;86.20;;;;;;5012879;28;20483;-79
2022/05/11 10:51:10;;;;;;;8.57;2.90;;;21.50;86.30;;;;;;5011159;28;20393;-79
2022/05/11 10:53:46;;;;;;;6.43;3.22;;;21.60;85.40;;;;;;5012683;28;20466;-79
2022/05/11 10:56:39;;;;;;;7.28;3.25;;;21.60;85.00;;;;;;5012498;28;20034;-79
2022/05/11 10:59:42;;;;;;;6.55;2.53;;;21.60;85.30;;;;;;5012511;28;20037;-78
2022/05/11 11:02:45;;;;;;;5.95;2.78;;;21.70;85.10;;;;;;5011279;28;20030;-79
2022/05/11 11:05:30;;;;;;;8.55;3.38;;;21.70;85.10;;;;;;5012471;28;20026;-79
2022/05/11 11:08:18;;;;;;;5.20;2.85;;;21.80;84.60;;;;;;5012196;28;20532;-78
2022/05/11 11:11:01;;;;;;;11.50;3.63;;;21.90;83.70;;;;;;5012197;28;20030;-78
2022/05/11 11:13:59;;;;;;;10.02;3.13;;;22.00;83.00;;;;;;5011078;28;20037;-79
2022/05/11 11:16:35;;;;;;;7.07;2.60;;;22.10;82.40;;;;;;5012065;28;20022;-78
2022/05/11 11:19:04;;;;;;;8.13;2.95;;;22.10;82.20;;;;;;5011900;28;20034;-79
2022/05/11 11:21:30;;;;;;;10.10;3.00;;;22.10;82.20;;;;;;5012158;28;20034;-81
2022/05/11 11:24:14;;;;;;;10.75;3.00;;;22.20;81.50;;;;;;5010956;28;20555;-79
2022/05/11 11:26:49;;;;;;;13.60;3.25;;;22.20;81.70;;;;;;5011873;28;20117;-79
2022/05/11 11:29:21;;;;;;;6.63;3.10;;;22.20;81.10;;;;;;5010676;28;20115;-79
2022/05/11 11:32:11;;;;;;;7.85;3.05;;;22.30;81.00;;;;;;5010564;28;20034;-79
2022/05/11 11:34:44;;;;;;;9.93;2.90;;;22.40;80.70;;;;;;5010814;28;20390;-79
2022/05/11 11:37:25;;;;;;;10.52;2.67;;;22.30;80.20;;;;;;5011594;28;20038;-80
2022/05/11 11:39:55;;;;;;;5.50;2.78;;;22.30;80.30;;;;;;5011657;28;20030;-81
2022/05/11 11:42:39;;;;;;;6.97;2.50;;;22.40;80.40;;;;;;5011991;28;20397;-81
2022/05/11 11:45:31;;;;;;;7.00;2.22;;;22.50;78.80;;;;;;5010412;28;20041;-81
2022/05/11 11:48:04;;;;;;;5.45;2.92;;;22.50;78.60;;;;;;4992777;28;20509;-79
2022/05/11 11:50:48;;;;;;;6.18;2.70;;;22.50;80.80;;;;;;5011524;28;20238;-78
2022/05/11 11:53:36;;;;;;;6.38;2.38;;;22.50;80.30;;;;;;5011469;28;20034;-79
2022/05/11 11:56:23;;;;;;;5.25;2.15;;;22.60;78.00;;;;;;5010038;28;20030;-79
2022/05/11 11:59:04;;;;;;;6.35;2.72;;;22.60;77.90;;;;;;5011284;28;20026;-79
2022/05/11 12:01:33;;;;;;;8.48;2.58;;;22.70;78.90;;;;;;5010183;28;20034;-81
2022/05/11 12:04:11;;;;;;;6.13;2.50;;;22.80;79.10;;;;;;5011359;28;20038;-81
2022/05/11 12:15:01;;;;;;;7.72;2.65;;;22.80;78.50;;;;;;4971170;28;20065;-81
2022/05/11 12:17:37;;;;;;;7.35;3.10;;;22.90;78.40;;;;;;4970895;28;20081;-82
2022/05/11 12:20:08;;;;;;;7.50;2.70;;;23.00;76.90;;;;;;4972049;28;20101;-81
2022/05/11 12:22:47;;;;;;;7.40;2.60;;;23.00;76.10;;;;;;4972143;28;20038;-82
2022/05/11 12:25:42;;;;;;;;;;;23.10;76.80;;;;;;4971339;28;20432;-82
2022/05/11 12:28:36;;;;;;;7.47;2.60;;;23.20;76.60;;;;;;4959424;28;19910;-82
2022/05/11 12:31:03;;;;;;;9.05;2.45;;;23.20;76.10;;;;;;4972008;28;20042;-82
2022/05/11 12:33:34;;;;;;;10.00;2.65;;;23.20;74.80;;;;;;4972041;28;20033;-81
2022/05/11 12:36:02;;;;;;;9.20;2.80;;;23.20;74.80;;;;;;4971799;28;20106;-81
2022/05/11 12:38:34;;;;;;;6.38;2.60;;;23.30;74.50;;;;;;4972146;28;20034;-82
2022/05/11 12:41:13;;;;;;;6.30;2.30;;;23.40;73.30;;;;;;4971993;28;20031;-82
2022/05/11 12:43:40;;;;;;;;;;;23.40;73.20;;;;;;4972327;28;20469;-82
2022/05/11 12:46:08;;;;;;;7.40;2.40;;;23.30;73.20;;;;;;4971896;28;19910;-81
2022/05/11 12:48:43;;;;;;;3.97;2.03;;;23.30;73.50;;;;;;4972045;28;20041;-81
2022/05/11 12:51:14;;;;;;;5.53;2.00;;;23.40;72.90;;;;;;4971988;28;20082;-81
2022/05/11 12:53:56;;;;;;;4.82;1.92;;;23.40;72.00;;;;;;4971835;28;20027;-81
2022/05/11 12:56:29;;;;;;;4.43;2.10;;;23.40;71.70;;;;;;4972864;28;20065;-82
2022/05/11 12:58:58;;;;;;;6.55;2.25;;;23.50;72.10;;;;;;4975692;28;20056;-82
2022/05/11 13:01:27;;;;;;;5.93;2.47;;;23.50;72.20;;;;;;4975700;28;20038;-82
2022/05/11 13:03:58;;;;;;;4.95;2.40;;;23.50;72.50;;;;;;4975765;28;20081;-81
2022/05/11 13:06:31;;;;;;;7.55;2.75;;;23.50;73.40;;;;;;4975526;28;20037;-82
2022/05/11 13:09:05;;;;;;;5.45;2.30;;;23.50;72.70;;;;;;4975588;28;20034;-81
2022/05/11 13:11:33;;;;;;;9.18;2.55;;;23.50;73.90;;;;;;4974395;28;20050;-81
2022/05/11 13:13:59;;;;;;;4.53;2.20;;;23.60;73.30;;;;;;4975428;28;20035;-81
2022/05/11 13:16:31;;;;;;;4.50;2.35;;;23.60;73.30;;;;;;4973997;28;20321;-81
2022/05/11 13:19:43;;;;;;;5.47;2.60;;;23.70;74.00;;;;;;4973991;28;20070;-81
2022/05/11 13:22:17;;;;;;;4.65;2.35;;;23.80;72.90;;;;;;4915438;29;20643;-82
2022/05/11 13:24:49;;;;;;;14.43;3.25;;;23.80;72.80;;;;;;4915626;29;20552;-81
2022/05/11 13:27:34;;;;;;;6.15;2.42;;;23.80;73.10;;;;;;4948766;28;20070;-82
2022/05/11 13:30:21;;;;;;;3.40;1.90;;;23.70;73.50;;;;;;4975256;28;20045;-82
2022/05/11 13:32:50;;;;;;;8.73;2.75;;;23.60;74.10;;;;;;4975244;28;20027;-82
2022/05/11 13:35:22;;;;;;;8.68;2.75;;;23.70;73.90;;;;;;4975437;28;20117;-82
2022/05/11 13:37:58;;;;;;;7.55;2.08;;;23.80;74.80;;;;;;4974913;28;20272;-81
2022/05/11 13:40:34;;;;;;;6.22;2.47;;;23.80;73.70;;;;;;4974963;28;20114;-82
2022/05/11 13:43:01;;;;;;;5.00;2.30;;;23.80;73.00;;;;;;4974869;28;20550;-82
2022/05/11 13:45:28;;;;;;;14.80;6.43;;;23.90;73.80;;;;;;4975101;28;20023;-82
2022/05/11 13:48:13;;;;;;;5.78;2.30;;;24.00;73.90;;;;;;4975318;28;20103;-81
2022/05/11 13:50:49;;;;;;;3.65;2.40;;;24.00;73.00;;;;;;4973415;28;20033;-81